createdAt,value
2023-01-07T00:01:38.241Z,4.53
2023-01-07T00:04:07.675Z,3.60
2023-01-07T00:06:36.797Z,3.78
2023-01-07T00:09:05.617Z,4.18
2023-01-07T00:11:37.762Z,4.47
2023-01-07T00:14:10.100Z,3.60
2023-01-07T00:16:38.022Z,3.83
2023-01-07T00:19:06.377Z,2.90
2023-01-07T00:21:34.087Z,2.22
2023-01-07T00:24:05.724Z,3.67
2023-01-07T00:26:35.713Z,3.67
2023-01-07T00:29:03.347Z,3.53
2023-01-07T00:31:32.477Z,3.20
2023-01-07T00:34:00.118Z,1.58
2023-01-07T00:36:29.514Z,3.10
2023-01-07T00:39:09.312Z,2.65
2023-01-07T00:41:36.973Z,2.70
2023-01-07T00:46:31.328Z,2.60
2023-01-07T00:48:59.717Z,3.00
2023-01-07T00:51:26.502Z,1.73
2023-01-07T00:53:53.337Z,2.72
2023-01-07T00:56:20.113Z,2.80
2023-01-07T00:58:47.120Z,1.23
2023-01-07T01:03:42.076Z,2.50
2023-01-07T01:06:13.586Z,2.97
2023-01-07T01:08:45.744Z,2.60
2023-01-07T01:11:14.382Z,2.55
2023-01-07T01:13:42.246Z,2.30
2023-01-07T01:21:06.359Z,1.95
2023-01-07T01:23:33.805Z,2.05
2023-01-07T01:26:09.800Z,3.13
2023-01-07T01:28:36.882Z,3.05
2023-01-07T01:31:04.635Z,3.00
2023-01-07T01:36:12.000Z,2.63
2023-01-07T01:38:41.857Z,2.40
2023-01-07T01:41:09.420Z,2.13
2023-01-07T01:43:41.503Z,1.75
2023-01-07T01:46:35.024Z,2.60
2023-01-07T01:49:20.976Z,2.70
2023-01-07T01:51:55.952Z,2.05
2023-01-07T01:54:23.771Z,2.42
2023-01-07T01:56:55.224Z,1.60
2023-01-07T01:59:26.634Z,2.13
2023-01-07T02:01:56.192Z,2.65
2023-01-07T02:04:25.928Z,2.20
2023-01-07T02:07:01.607Z,2.10
2023-01-07T02:09:29.922Z,2.10
2023-01-07T02:12:09.541Z,1.97
2023-01-07T02:15:00.985Z,1.67
2023-01-07T02:18:02.284Z,2.30
2023-01-07T02:20:29.048Z,1.90
2023-01-07T02:23:33.192Z,1.77
2023-01-07T02:26:25.713Z,1.83
2023-01-07T02:29:10.391Z,2.35
2023-01-07T02:32:04.952Z,2.00
2023-01-07T02:34:41.188Z,2.00
2023-01-07T02:37:19.027Z,1.85
2023-01-07T02:40:22.667Z,2.40
2023-01-07T02:43:02.927Z,1.90
2023-01-07T02:46:15.394Z,2.10
2023-01-07T02:48:44.526Z,1.92
2023-01-07T02:51:11.339Z,2.25
2023-01-07T02:53:40.197Z,1.40
2023-01-07T02:56:52.611Z,1.90
2023-01-07T02:59:21.996Z,2.20
2023-01-07T03:02:14.561Z,1.63
2023-01-07T03:04:41.216Z,2.15
2023-01-07T03:07:10.949Z,1.70
2023-01-07T03:10:11.755Z,1.80
2023-01-07T03:13:07.100Z,2.28
2023-01-07T03:15:41.891Z,1.50
2023-01-07T03:18:13.457Z,1.67
2023-01-07T03:20:44.231Z,1.63
2023-01-07T03:23:13.898Z,2.22
2023-01-07T03:25:46.564Z,2.05
2023-01-07T03:28:17.852Z,1.42
2023-01-07T03:30:46.823Z,2.28
2023-01-07T03:33:20.118Z,1.90
2023-01-07T03:35:49.571Z,2.40
2023-01-07T03:38:20.563Z,2.00
2023-01-07T03:40:47.495Z,2.00
2023-01-07T03:43:19.346Z,1.77
2023-01-07T03:45:50.403Z,1.40
2023-01-07T03:48:20.009Z,1.58
2023-01-07T03:50:48.430Z,1.30
2023-01-07T03:53:18.130Z,1.90
2023-01-07T03:55:48.993Z,1.52
2023-01-07T03:58:15.809Z,1.88
2023-01-07T04:00:44.382Z,1.52
2023-01-07T04:03:16.467Z,1.60
2023-01-07T04:05:45.909Z,1.75
2023-01-07T04:08:13.419Z,1.50
2023-01-07T04:10:41.136Z,1.30
2023-01-07T04:13:08.307Z,1.65
2023-01-07T04:18:03.253Z,1.80
2023-01-07T04:20:30.459Z,1.50
2023-01-07T04:22:57.201Z,1.40
2023-01-07T04:25:24.444Z,1.25
2023-01-07T04:27:57.716Z,1.58
2023-01-07T04:30:24.460Z,1.60
2023-01-07T04:32:54.153Z,1.30
2023-01-07T04:35:20.882Z,1.50
2023-01-07T04:37:50.876Z,1.50
2023-01-07T04:40:17.699Z,1.40
2023-01-07T04:42:44.842Z,1.90
2023-01-07T04:45:11.655Z,1.40
2023-01-07T04:47:38.642Z,1.55
2023-01-07T04:50:06.848Z,1.38
2023-01-07T04:52:35.556Z,1.30
2023-01-07T04:55:03.042Z,1.00
2023-01-07T04:57:30.578Z,1.38
2023-01-07T05:00:00.168Z,1.35
2023-01-07T05:02:27.144Z,1.50
2023-01-07T05:04:56.943Z,1.02
2023-01-07T05:07:23.697Z,1.08
2023-01-07T05:09:54.354Z,1.00
2023-01-07T05:12:21.167Z,0.95
2023-01-07T05:14:48.507Z,1.00
2023-01-07T05:17:15.323Z,1.00
2023-01-07T05:19:43.029Z,0.65
2023-01-07T05:22:12.029Z,1.10
2023-01-07T05:24:40.881Z,0.90
2023-01-07T05:27:07.798Z,0.88
2023-01-07T05:29:35.859Z,0.73
2023-01-07T05:32:02.746Z,0.57
2023-01-07T05:34:29.802Z,0.70
2023-01-07T05:36:57.976Z,0.63
2023-01-07T05:39:26.012Z,0.60
2023-01-07T05:41:56.095Z,1.35
2023-01-07T05:44:24.724Z,0.95
2023-01-07T05:46:51.465Z,0.65
2023-01-07T05:49:20.462Z,0.60
2023-01-07T05:51:47.169Z,0.43
2023-01-07T05:54:14.223Z,0.43
2023-01-07T05:56:41.153Z,0.57
2023-01-07T05:59:07.952Z,0.50
2023-01-07T06:01:34.682Z,0.55
2023-01-07T06:04:01.442Z,0.55
2023-01-07T06:06:28.239Z,0.60
2023-01-07T06:09:00.460Z,0.80
2023-01-07T06:11:27.200Z,0.95
2023-01-07T06:13:53.894Z,0.80
2023-01-07T06:16:23.969Z,0.60
2023-01-07T06:18:50.740Z,0.60
2023-01-07T06:21:18.329Z,0.70
2023-01-07T06:23:45.277Z,0.80
2023-01-07T06:26:11.984Z,0.57
2023-01-07T06:28:38.665Z,0.60
2023-01-07T06:31:05.521Z,1.02
2023-01-07T06:33:33.723Z,0.60
2023-01-07T06:36:00.520Z,0.60
2023-01-07T06:38:27.221Z,0.47
2023-01-07T06:40:53.979Z,0.68
2023-01-07T06:43:20.727Z,0.88
2023-01-07T06:45:47.593Z,0.65
2023-01-07T06:48:14.300Z,0.60
2023-01-07T06:50:42.962Z,0.47
2023-01-07T06:53:12.959Z,0.60
2023-01-07T06:55:39.868Z,0.80
2023-01-07T06:58:06.633Z,0.52
2023-01-07T07:00:33.383Z,0.50
2023-01-07T07:03:02.284Z,0.80
2023-01-07T07:05:29.235Z,0.57
2023-01-07T07:07:55.945Z,0.63
2023-01-07T07:10:26.172Z,0.77
2023-01-07T07:12:53.007Z,0.90
2023-01-07T07:15:19.803Z,0.65
2023-01-07T07:17:46.904Z,0.88
2023-01-07T07:20:13.653Z,0.80
2023-01-07T07:22:45.557Z,0.80
2023-01-07T07:25:13.001Z,0.77
2023-01-07T07:27:39.778Z,0.60
2023-01-07T07:30:08.211Z,0.70
2023-01-07T07:32:34.927Z,0.70
2023-01-07T07:35:01.646Z,0.98
2023-01-07T07:37:31.353Z,0.38
2023-01-07T07:39:58.123Z,0.60
2023-01-07T07:42:24.801Z,0.60
2023-01-07T07:44:51.565Z,0.60
2023-01-07T07:47:18.414Z,0.70
2023-01-07T07:49:48.967Z,0.52
2023-01-07T07:52:15.762Z,0.77
2023-01-07T07:54:42.697Z,0.35
2023-01-07T07:57:10.677Z,0.50
2023-01-07T08:02:12.453Z,0.60
2023-01-07T08:04:39.539Z,0.50
2023-01-07T08:07:06.455Z,0.80
2023-01-07T08:09:36.115Z,0.80
2023-01-07T08:12:02.840Z,0.85
2023-01-07T08:14:29.586Z,0.60
2023-01-07T08:16:56.378Z,0.90
2023-01-07T08:19:23.141Z,0.70
2023-01-07T08:21:51.772Z,1.38
2023-01-07T08:24:18.492Z,1.20
2023-01-07T08:26:45.197Z,1.30
2023-01-07T08:29:11.921Z,1.25
2023-01-07T08:31:38.723Z,1.10
2023-01-07T08:34:05.817Z,0.50
2023-01-07T08:36:35.960Z,0.52
2023-01-07T08:39:02.721Z,0.50
2023-01-07T08:41:29.449Z,0.90
2023-01-07T08:43:58.653Z,0.70
2023-01-07T08:46:25.462Z,0.50
2023-01-07T08:48:52.235Z,0.85
2023-01-07T08:51:19.154Z,0.73
2023-01-07T08:53:48.434Z,0.50
2023-01-07T08:56:15.351Z,0.50
2023-01-07T08:58:42.153Z,0.70
2023-01-07T09:01:09.231Z,0.50
2023-01-07T09:03:36.024Z,0.43
2023-01-07T09:06:02.975Z,0.50
2023-01-07T09:08:29.727Z,0.50
2023-01-07T09:10:56.488Z,0.50
2023-01-07T09:13:26.590Z,0.60
2023-01-07T09:15:55.219Z,0.70
2023-01-07T09:18:22.094Z,0.70
2023-01-07T09:20:48.879Z,0.50
2023-01-07T09:23:15.863Z,0.70
2023-01-07T09:25:42.694Z,0.63
2023-01-07T09:28:09.435Z,0.50
2023-01-07T09:30:37.472Z,0.60
2023-01-07T09:35:31.186Z,0.60
2023-01-07T09:38:00.920Z,1.00
2023-01-07T09:40:32.364Z,0.30
2023-01-07T09:43:26.885Z,0.40
2023-01-07T09:46:14.640Z,0.60
2023-01-07T09:48:51.673Z,0.70
2023-01-07T09:51:27.495Z,0.57
2023-01-07T09:53:57.814Z,0.70
2023-01-07T09:56:28.592Z,0.90
2023-01-07T09:58:57.543Z,0.65
2023-01-07T10:01:43.259Z,0.52
2023-01-07T10:04:15.892Z,0.20
2023-01-07T10:07:14.523Z,0.40
2023-01-07T10:10:08.237Z,0.50
2023-01-07T10:13:09.822Z,0.10
2023-01-07T10:15:53.939Z,0.43
2023-01-07T10:18:55.717Z,0.30
2023-01-07T10:21:26.329Z,0.20
2023-01-07T10:24:03.374Z,0.40
2023-01-07T10:26:37.844Z,0.47
2023-01-07T10:29:34.410Z,0.52
2023-01-07T10:32:13.371Z,0.17
2023-01-07T10:34:46.172Z,0.22
2023-01-07T10:37:27.372Z,0.40
2023-01-07T10:40:23.219Z,0.60
2023-01-07T10:43:20.822Z,0.40
2023-01-07T10:46:11.723Z,0.30
2023-01-07T10:49:23.555Z,0.40
2023-01-07T10:52:09.599Z,0.30
2023-01-07T10:54:58.143Z,0.43
2023-01-07T10:57:27.313Z,0.45
2023-01-07T10:59:56.758Z,0.40
2023-01-07T11:02:28.616Z,0.40
2023-01-07T11:04:56.827Z,0.40
2023-01-07T11:07:32.290Z,0.75
2023-01-07T11:10:04.333Z,0.43
2023-01-07T11:12:50.697Z,0.40
2023-01-07T11:15:36.248Z,0.43
2023-01-07T11:18:17.265Z,0.60
2023-01-07T11:20:55.814Z,0.50
2023-01-07T11:23:31.531Z,0.40
2023-01-07T11:26:28.136Z,0.50
2023-01-07T11:29:01.076Z,0.40
2023-01-07T11:31:55.032Z,0.50
2023-01-07T11:34:46.261Z,0.52
2023-01-07T11:37:31.488Z,0.75
2023-01-07T11:40:02.650Z,1.20
2023-01-07T11:42:38.920Z,0.50
2023-01-07T11:45:08.516Z,0.50
2023-01-07T11:47:38.315Z,0.40
2023-01-07T11:50:06.245Z,0.60
2023-01-07T11:54:59.932Z,0.60
2023-01-07T11:57:27.749Z,0.70
2023-01-07T12:00:15.305Z,0.93
2023-01-07T12:02:42.293Z,0.68
2023-01-07T12:05:27.845Z,0.63
2023-01-07T12:07:56.902Z,0.65
2023-01-07T12:10:38.078Z,0.60
2023-01-07T12:13:16.961Z,0.70
2023-01-07T12:15:56.145Z,0.80
2023-01-07T12:18:49.637Z,0.60
2023-01-07T12:22:14.444Z,0.47
2023-01-07T12:24:50.124Z,1.73
2023-01-07T12:27:34.927Z,0.90
2023-01-07T12:30:30.828Z,0.50
2023-01-07T12:33:16.056Z,0.80
2023-01-07T12:35:45.497Z,0.80
2023-01-07T12:38:21.988Z,0.70
2023-01-07T12:41:02.099Z,0.57
2023-01-07T12:43:34.863Z,0.80
2023-01-07T12:46:11.066Z,0.60
2023-01-07T12:49:02.235Z,0.80
2023-01-07T12:51:35.828Z,0.50
2023-01-07T12:54:12.060Z,0.60
2023-01-07T12:56:56.446Z,0.63
2023-01-07T12:59:46.418Z,0.45
2023-01-07T13:02:26.834Z,1.00
2023-01-07T13:05:00.330Z,1.00
2023-01-07T13:07:43.145Z,0.40
2023-01-07T13:10:24.755Z,1.35
2023-01-07T13:12:57.046Z,1.38
2023-01-07T13:15:27.511Z,1.85
2023-01-07T13:17:57.025Z,0.73
2023-01-07T13:20:51.352Z,0.60
2023-01-07T13:23:33.853Z,0.80
2023-01-07T13:26:10.060Z,0.95
2023-01-07T13:28:51.539Z,2.10
2023-01-07T13:31:43.068Z,1.65
2023-01-07T13:34:21.782Z,0.70
2023-01-07T13:37:10.633Z,1.23
2023-01-07T13:39:56.905Z,0.60
2023-01-07T13:42:44.948Z,1.98
2023-01-07T13:45:16.830Z,1.02
2023-01-07T13:47:48.319Z,0.93
2023-01-07T13:50:19.642Z,0.73
2023-01-07T13:52:56.789Z,0.70
2023-01-07T13:55:47.470Z,0.65
2023-01-07T13:58:35.925Z,1.50
2023-01-07T14:01:30.395Z,1.10
2023-01-07T14:04:03.258Z,0.60
2023-01-07T14:06:32.618Z,0.60
2023-01-07T14:09:08.458Z,0.90
2023-01-07T14:11:41.904Z,0.90
2023-01-07T14:14:46.566Z,0.80
2023-01-07T14:17:40.813Z,0.47
2023-01-07T14:20:23.566Z,0.60
2023-01-07T14:23:03.591Z,0.80
2023-01-07T14:25:40.192Z,0.68
2023-01-07T14:28:13.235Z,1.20
2023-01-07T14:30:46.098Z,0.30
2023-01-07T14:33:27.826Z,0.77
2023-01-07T14:36:00.542Z,0.40
2023-01-07T14:38:30.065Z,0.73
2023-01-07T14:41:20.298Z,0.70
2023-01-07T14:43:49.340Z,0.50
2023-01-07T14:46:25.115Z,0.80
2023-01-07T14:49:08.715Z,0.70
2023-01-07T14:51:57.874Z,0.70
2023-01-07T14:55:03.148Z,0.80
2023-01-07T14:57:41.887Z,0.77
2023-01-07T15:00:41.060Z,0.90
2023-01-07T15:03:32.575Z,0.95
2023-01-07T15:06:25.207Z,0.82
2023-01-07T15:09:12.969Z,0.60
2023-01-07T15:12:01.778Z,0.65
2023-01-07T15:14:52.995Z,0.80
2023-01-07T15:17:20.235Z,1.05
2023-01-07T15:19:46.940Z,0.90
2023-01-07T15:22:31.479Z,0.90
2023-01-07T15:25:04.329Z,0.93
2023-01-07T15:27:47.646Z,2.88
2023-01-07T15:30:43.508Z,1.50
2023-01-07T15:33:49.165Z,11.80
2023-01-07T15:36:16.484Z,7.75
2023-01-07T15:38:50.754Z,7.13
2023-01-07T15:41:36.203Z,2.00
2023-01-07T15:44:14.143Z,1.23
2023-01-07T15:46:41.724Z,1.02
2023-01-07T15:49:08.438Z,2.38
2023-01-07T15:51:40.641Z,1.23
2023-01-07T15:54:22.938Z,1.25
2023-01-07T15:56:53.051Z,0.90
2023-01-07T15:59:35.411Z,1.70
2023-01-07T16:02:37.412Z,1.10
2023-01-07T16:05:06.348Z,1.80
2023-01-07T16:07:33.114Z,1.88
2023-01-07T16:10:00.849Z,2.03
2023-01-07T16:12:34.738Z,1.20
2023-01-07T16:15:20.141Z,0.85
2023-01-07T16:18:02.029Z,1.08
2023-01-07T16:20:36.058Z,1.10
2023-01-07T16:23:09.943Z,0.93
2023-01-07T16:25:46.083Z,0.90
2023-01-07T16:28:22.461Z,1.23
2023-01-07T16:30:51.470Z,0.73
2023-01-07T16:33:22.251Z,0.93
2023-01-07T16:35:55.819Z,1.50
2023-01-07T16:38:23.377Z,1.13
2023-01-07T16:40:50.827Z,2.10
2023-01-07T16:43:46.939Z,2.35
2023-01-07T16:46:33.152Z,1.20
2023-01-07T16:49:11.929Z,1.90
2023-01-07T16:51:50.725Z,1.40
2023-01-07T16:54:31.153Z,1.13
2023-01-07T16:57:04.202Z,1.00
2023-01-07T16:59:37.111Z,1.17
2023-01-07T17:02:34.657Z,1.23
2023-01-07T17:07:40.794Z,0.90
2023-01-07T17:10:16.960Z,1.42
2023-01-07T17:12:55.784Z,0.75
2023-01-07T17:15:37.013Z,1.40
2023-01-07T17:18:15.625Z,1.30
2023-01-07T17:20:56.194Z,1.30
2023-01-07T17:23:26.218Z,1.25
2023-01-07T17:26:14.939Z,0.90
2023-01-07T17:29:02.209Z,1.00
2023-01-07T17:31:29.000Z,1.27
2023-01-07T17:33:56.121Z,2.40
2023-01-07T17:36:25.246Z,1.20
2023-01-07T17:38:52.725Z,1.20
2023-01-07T17:41:39.806Z,1.10
2023-01-07T17:44:11.527Z,0.80
2023-01-07T17:46:39.355Z,1.55
2023-01-07T17:51:38.758Z,1.42
2023-01-07T17:54:06.800Z,2.00
2023-01-07T17:56:34.257Z,1.17
2023-01-07T17:59:01.175Z,7.88
2023-01-07T18:01:28.280Z,1.00
2023-01-07T18:03:57.538Z,1.33
2023-01-07T18:06:27.350Z,1.00
2023-01-07T18:08:54.138Z,1.05
2023-01-07T18:11:45.205Z,0.90
2023-01-07T18:14:16.337Z,0.73
2023-01-07T18:16:43.356Z,1.27
2023-01-07T18:19:14.458Z,0.87
2023-01-07T18:21:41.916Z,1.85
2023-01-07T18:24:21.341Z,1.13
2023-01-07T18:26:48.604Z,1.75
2023-01-07T18:29:15.531Z,1.95
2023-01-07T18:31:44.020Z,0.95
2023-01-07T18:34:12.457Z,0.80
2023-01-07T18:36:39.680Z,1.08
2023-01-07T18:39:09.924Z,1.30
2023-01-07T18:41:39.226Z,1.40
2023-01-07T18:44:06.036Z,1.17
2023-01-07T18:46:35.341Z,5.05
2023-01-07T18:49:02.109Z,1.08
2023-01-07T18:51:28.869Z,1.17
2023-01-07T18:53:55.565Z,1.20
2023-01-07T18:56:22.344Z,1.08
2023-01-07T18:58:53.480Z,0.93
2023-01-07T19:01:20.608Z,0.98
2023-01-07T19:03:48.021Z,1.48
2023-01-07T19:06:15.324Z,1.70
2023-01-07T19:08:44.514Z,1.20
2023-01-07T19:11:16.057Z,1.10
2023-01-07T19:13:47.109Z,0.90
2023-01-07T19:16:16.257Z,0.98
2023-01-07T19:18:43.153Z,1.10
2023-01-07T19:21:12.369Z,0.73
2023-01-07T19:23:39.168Z,0.90
2023-01-07T19:26:08.395Z,1.00
2023-01-07T19:28:35.376Z,1.10
2023-01-07T19:31:07.488Z,0.93
2023-01-07T19:33:36.772Z,1.35
2023-01-07T19:36:34.961Z,0.82
2023-01-07T19:39:05.465Z,1.02
2023-01-07T19:41:35.296Z,2.83
2023-01-07T19:44:02.233Z,0.77
2023-01-07T19:46:28.970Z,1.00
2023-01-07T19:48:55.677Z,0.65
2023-01-07T19:51:22.522Z,0.93
2023-01-07T19:53:51.815Z,1.00
2023-01-07T19:56:18.717Z,1.40
2023-01-07T19:58:45.444Z,1.38
2023-01-07T20:01:15.704Z,1.27
2023-01-07T20:03:43.537Z,1.30
2023-01-07T20:06:15.744Z,1.10
2023-01-07T20:08:42.945Z,0.85
2023-01-07T20:11:09.819Z,0.90
2023-01-07T20:13:38.071Z,0.93
2023-01-07T20:16:10.582Z,0.88
2023-01-07T20:18:42.415Z,0.75
2023-01-07T20:21:10.114Z,1.35
2023-01-07T20:23:38.332Z,0.98
2023-01-07T20:26:07.212Z,1.33
2023-01-07T20:28:34.131Z,0.80
2023-01-07T20:31:04.684Z,0.98
2023-01-07T20:33:31.600Z,1.20
2023-01-07T20:36:03.001Z,1.05
2023-01-07T20:38:29.693Z,1.48
2023-01-07T20:40:56.434Z,0.95
2023-01-07T20:43:24.282Z,0.75
2023-01-07T20:48:17.795Z,1.48
2023-01-07T20:50:44.549Z,0.90
2023-01-07T20:53:11.594Z,0.90
2023-01-07T20:55:45.655Z,1.40
2023-01-07T20:58:12.484Z,1.23
2023-01-07T21:00:40.996Z,0.90
2023-01-07T21:03:08.525Z,1.17
2023-01-07T21:05:37.629Z,0.98
2023-01-07T21:08:04.510Z,1.50
2023-01-07T21:10:31.350Z,0.95
2023-01-07T21:12:58.422Z,0.93
2023-01-07T21:15:25.129Z,0.77
2023-01-07T21:17:53.917Z,1.02
2023-01-07T21:20:20.673Z,1.30
2023-01-07T21:22:48.167Z,1.60
2023-01-07T21:25:16.072Z,1.08
2023-01-07T21:30:16.359Z,1.33
2023-01-07T21:32:43.599Z,1.00
2023-01-07T21:35:11.893Z,1.45
2023-01-07T21:37:39.323Z,1.95
2023-01-07T21:40:07.299Z,0.98
2023-01-07T21:42:36.808Z,1.30
2023-01-07T21:45:04.737Z,1.20
2023-01-07T21:47:34.492Z,1.08
2023-01-07T21:50:01.292Z,1.23
2023-01-07T21:52:28.123Z,1.10
2023-01-07T21:54:56.153Z,1.30
2023-01-07T21:59:52.284Z,1.05
2023-01-07T22:02:19.187Z,1.17
2023-01-07T22:04:47.579Z,1.40
2023-01-07T22:07:16.584Z,1.13
2023-01-07T22:09:44.137Z,1.08
2023-01-07T22:12:12.615Z,1.20
2023-01-07T22:14:41.960Z,1.17
2023-01-07T22:17:10.737Z,1.40
2023-01-07T22:19:37.549Z,1.00
2023-01-07T22:22:04.317Z,1.05
2023-01-07T22:24:31.295Z,1.50
2023-01-07T22:26:58.196Z,1.20
2023-01-07T22:29:25.009Z,1.27
2023-01-07T22:31:52.941Z,0.90
2023-01-07T22:36:52.017Z,1.17
2023-01-07T22:39:28.486Z,1.30
2023-01-07T22:41:59.321Z,0.80
2023-01-07T22:44:36.599Z,0.80
2023-01-07T22:47:07.317Z,1.73
2023-01-07T22:49:35.005Z,1.25
2023-01-07T22:52:02.911Z,1.15
2023-01-07T22:56:58.033Z,1.50
2023-01-07T22:59:24.777Z,0.80
2023-01-07T23:01:51.461Z,1.20
2023-01-07T23:04:18.411Z,1.35
2023-01-07T23:06:45.305Z,1.27
2023-01-07T23:09:12.121Z,0.90
2023-01-07T23:11:47.763Z,1.08
2023-01-07T23:14:23.574Z,0.90
2023-01-07T23:16:52.247Z,1.17
2023-01-07T23:19:20.592Z,2.97
2023-01-07T23:21:49.773Z,1.30
2023-01-07T23:24:17.176Z,1.20
2023-01-07T23:26:44.360Z,1.05
2023-01-07T23:29:11.096Z,1.23
2023-01-07T23:31:37.878Z,1.42
2023-01-07T23:34:04.982Z,1.17
2023-01-07T23:36:32.144Z,0.77
2023-01-07T23:38:58.852Z,1.30
2023-01-07T23:41:25.577Z,1.40
2023-01-07T23:43:52.328Z,1.13
2023-01-07T23:46:19.070Z,1.15
2023-01-07T23:48:45.882Z,1.08
2023-01-07T23:51:20.343Z,1.23
2023-01-07T23:53:47.557Z,0.90
2023-01-07T23:56:14.886Z,1.70
2023-01-07T23:58:41.606Z,0.88
